Time;durP1;ratioP1;P1;durP2;ratioP2;P2;SDS_P1;SDS_P2;PMS_P1;PMS_P2;Temp;Humidity;BMP_temperature;BMP_pressure;BME280_temperature;BME280_humidity;BME280_pressure;Samples;Min_cycle;Max_cycle;Signal;HPM_P1;HPM_P2
2021/12/23 00:00:37;;;;;;;9.78;5.87;;;;;;;-9.65;78.89;139942.63;1834997;77;22571;-58
2021/12/23 00:03:12;;;;;;;12.75;5.85;;;;;;;-9.54;79.16;139968.53;1833219;77;22242;-58
2021/12/23 00:06:05;;;;;;;10.20;5.65;;;;;;;-9.37;79.17;140007.92;1834856;77;22156;-57
2021/12/23 00:08:42;;;;;;;13.30;6.22;;;;;;;-9.30;78.92;140026.41;1834459;77;22159;-56
2021/12/23 00:11:17;;;;;;;13.08;5.60;;;;;;;-9.30;78.77;140025.19;1834928;77;22132;-57
2021/12/23 00:14:01;;;;;;;15.90;6.55;;;;;;;-9.29;78.54;140027.62;1848151;77;22159;-57
2021/12/23 00:17:06;;;;;;;14.23;6.03;;;;;;;-9.35;78.37;140012.86;1853486;77;22155;-56
2021/12/23 00:25:12;;;;;;;17.05;6.83;;;;;;;-9.75;78.85;139916.78;1832966;77;22210;-56
2021/12/23 00:28:12;;;;;;;10.88;5.37;;;;;;;-9.81;78.96;139903.23;1833170;77;22221;-56
2021/12/23 00:31:06;;;;;;;11.08;5.90;;;;;;;-9.88;78.94;139887.22;1853574;77;22136;-56
2021/12/23 00:34:00;;;;;;;15.30;7.08;;;;;;;-9.88;79.36;139885.98;1853545;77;22160;-56
2021/12/23 00:36:36;;;;;;;13.05;5.92;;;;;;;-9.86;79.30;139892.16;1835095;77;22160;-56
2021/12/23 00:39:30;;;;;;;13.35;6.22;;;;;;;-9.83;79.38;139899.53;1834887;77;22618;-55
2021/12/23 00:42:11;;;;;;;12.30;6.40;;;;;;;-9.79;79.35;139908.17;1853624;77;22553;-56
2021/12/23 00:44:47;;;;;;;14.15;7.53;;;;;;;-9.78;79.26;139909.39;1834999;77;22157;-57
2021/12/23 00:47:41;;;;;;;11.65;6.45;;;;;;;-9.70;79.47;139929.09;1843382;77;22136;-56
2021/12/23 00:50:35;;;;;;;12.33;5.85;;;;;;;-9.73;79.14;139921.72;1835000;77;22165;-56
2021/12/23 00:53:12;;;;;;;12.80;5.87;;;;;;;-9.77;79.38;139913.06;1835049;77;22128;-56
2021/12/23 00:55:51;;;;;;;15.65;7.17;;;;;;;-9.82;79.69;139900.75;1835182;77;20206;-56
2021/12/23 00:58:33;;;;;;;11.73;6.08;;;;;;;-9.71;79.95;139926.64;1853526;77;22219;-55
2021/12/23 01:01:08;;;;;;;12.60;6.05;;;;;;;-9.61;79.61;139951.28;1835009;77;22160;-55
2021/12/23 01:03:43;;;;;;;11.38;6.80;;;;;;;-9.63;79.58;139947.56;1819316;77;28034;-57
2021/12/23 01:06:19;;;;;;;12.25;7.47;;;;;;;-9.54;79.59;139968.53;1837814;77;27970;-56
2021/12/23 01:08:54;;;;;;;13.15;6.03;;;;;;;-9.44;79.38;139993.16;1835015;77;22125;-56
2021/12/23 01:11:29;;;;;;;10.75;6.40;;;;;;;-9.44;79.21;139993.16;1853536;77;22124;-57
2021/12/23 01:19:53;;;;;;;11.83;5.05;;;;;;;-9.68;78.31;139934.03;1834910;77;22132;-56
2021/12/23 01:22:28;;;;;;;9.93;5.08;;;;;;;-9.88;78.24;139887.22;1835126;77;22569;-56
2021/12/23 01:25:04;;;;;;;14.10;6.28;;;;;;;-10.05;78.57;139845.34;1819410;77;28437;-56
2021/12/23 01:27:59;;;;;;;10.93;5.20;;;;;;;-10.11;79.67;139831.81;1834869;77;22195;-57
2021/12/23 01:30:53;;;;;;;11.75;5.40;;;;;;;-10.17;80.08;139817.06;1834995;77;22133;-58
2021/12/23 01:33:28;;;;;;;11.00;5.12;;;;;;;-10.19;80.39;139810.91;1835001;77;22156;-56
2021/12/23 01:36:24;;;;;;;10.80;6.17;;;;;;;-10.15;80.68;139820.72;1834968;77;22230;-55
2021/12/23 01:39:18;;;;;;;12.25;6.22;;;;;;;-10.16;81.10;139818.28;1837759;77;27982;-55
2021/12/23 01:41:53;;;;;;;10.98;6.37;;;;;;;-10.01;81.31;139855.22;1853564;77;22546;-56
2021/12/23 01:44:47;;;;;;;12.37;5.50;;;;;;;-10.00;80.81;139856.44;1834995;77;22144;-55
2021/12/23 01:47:23;;;;;;;18.98;6.58;;;;;;;-10.07;80.62;139840.45;1834947;77;22592;-56
2021/12/23 01:49:58;;;;;;;8.98;5.70;;;;;;;-10.07;80.73;139841.67;1819405;77;28420;-55
2021/12/23 01:52:51;;;;;;;10.45;5.40;;;;;;;-9.98;80.40;139861.36;1835035;77;22156;-55
2021/12/23 01:55:27;;;;;;;10.72;6.33;;;;;;;-10.07;80.05;139841.67;1835246;77;22124;-56
2021/12/23 01:58:22;;;;;;;8.50;5.30;;;;;;;-10.10;80.19;139834.30;1853433;77;22156;-56
2021/12/23 02:00:58;;;;;;;9.93;5.42;;;;;;;-10.20;79.71;139808.41;1834845;77;22579;-55
2021/12/23 02:03:57;;;;;;;9.78;5.12;;;;;;;-10.33;79.72;139778.95;1834109;77;22628;-56
2021/12/23 02:06:33;;;;;;;11.68;4.80;;;;;;;-10.40;79.83;139760.50;1834955;77;22125;-55
2021/12/23 02:09:27;;;;;;;10.30;5.72;;;;;;;-10.43;80.01;139754.34;1853492;77;22614;-56
2021/12/23 02:12:05;;;;;;;11.28;6.10;;;;;;;-10.50;80.30;139738.33;1834849;77;22186;-56
2021/12/23 02:14:42;;;;;;;9.73;5.30;;;;;;;-10.51;80.49;139734.63;1834844;77;22203;-55
2021/12/23 02:17:38;;;;;;;17.82;6.12;;;;;;;-10.46;80.84;139746.92;1853523;77;22557;-55
2021/12/23 02:20:35;;;;;;;12.95;6.00;;;;;;;-10.38;80.93;139766.66;1853519;77;22132;-57
2021/12/23 02:23:10;;;;;;;9.75;5.37;;;;;;;-10.41;80.79;139759.23;1834982;77;22603;-56
2021/12/23 02:25:45;;;;;;;12.20;6.30;;;;;;;-10.33;80.91;139777.69;1835013;77;22136;-55
2021/12/23 02:28:39;;;;;;;11.63;5.62;;;;;;;-10.29;80.81;139787.56;1834980;77;22136;-55
2021/12/23 02:31:35;;;;;;;14.75;6.70;;;;;;;-10.26;80.61;139794.87;1834785;77;22183;-56
2021/12/23 02:34:10;;;;;;;12.65;7.10;;;;;;;-10.28;80.70;139791.27;1819462;77;27982;-54
2021/12/23 02:37:04;;;;;;;10.65;6.17;;;;;;;-10.18;80.66;139813.34;1834953;77;22547;-54
2021/12/23 02:40:08;;;;;;;12.20;6.83;;;;;;;-10.14;80.83;139824.44;1853139;77;22218;-55
2021/12/23 02:42:43;;;;;;;11.30;6.40;;;;;;;-10.01;81.09;139855.22;1835036;77;22124;-55
2021/12/23 02:45:37;;;;;;;12.05;6.50;;;;;;;-10.00;80.70;139856.44;1845407;77;22174;-55
2021/12/23 02:48:22;;;;;;;11.45;6.72;;;;;;;-10.12;80.54;139828.16;1819560;77;28441;-56
2021/12/23 02:50:59;;;;;;;13.13;6.22;;;;;;;-10.22;80.62;139804.75;1835020;77;22128;-56
2021/12/23 02:53:34;;;;;;;9.93;5.83;;;;;;;-10.31;80.93;139783.84;1835013;77;22156;-55
2021/12/23 02:56:14;;;;;;;11.45;7.20;;;;;;;-10.37;80.82;139769.09;1819461;77;28015;-56
2021/12/23 02:58:49;;;;;;;11.57;6.10;;;;;;;-10.40;80.93;139761.72;1835011;77;22129;-54
2021/12/23 03:01:25;;;;;;;16.42;7.17;;;;;;;-10.48;81.00;139742.03;1835015;77;22152;-55
2021/12/23 03:04:19;;;;;;;11.35;6.30;;;;;;;-10.52;81.33;139732.17;1800712;79;22176;-55
2021/12/23 03:06:57;;;;;;;10.98;5.37;;;;;;;-10.48;81.68;139742.03;1835041;77;22124;-55
2021/12/23 03:09:33;;;;;;;11.18;5.92;;;;;;;-10.40;81.67;139761.72;1834800;77;22155;-55
2021/12/23 03:12:27;;;;;;;12.35;6.55;;;;;;;-10.39;81.53;139762.94;1834996;77;22551;-55
2021/12/23 03:15:04;;;;;;;11.43;6.42;;;;;;;-10.46;81.34;139746.92;1834940;77;22562;-56
2021/12/23 03:17:59;;;;;;;11.95;6.55;;;;;;;-10.46;81.53;139746.92;1853514;77;22192;-56
2021/12/23 03:20:35;;;;;;;12.63;6.50;;;;;;;-10.44;81.51;139751.86;1853563;77;22123;-55
2021/12/23 03:23:11;;;;;;;10.75;6.33;;;;;;;-10.43;81.42;139754.34;1853536;77;22155;-54
2021/12/23 03:25:46;;;;;;;12.90;6.83;;;;;;;-10.46;81.35;139746.92;1853601;77;22132;-55
2021/12/23 03:28:22;;;;;;;11.57;5.90;;;;;;;-10.55;81.44;139724.80;1834826;77;22183;-56
2021/12/23 03:30:58;;;;;;;13.35;7.58;;;;;;;-10.48;82.03;139742.03;1853600;77;22151;-55
2021/12/23 03:33:33;;;;;;;13.00;6.70;;;;;;;-10.40;81.92;139761.72;1835060;77;20100;-56
2021/12/23 03:36:27;;;;;;;14.60;6.80;;;;;;;-10.37;81.68;139769.09;1853544;77;22140;-56
2021/12/23 03:39:05;;;;;;;13.43;7.50;;;;;;;-10.49;81.45;139739.55;1835006;77;22145;-56
2021/12/23 03:41:38;;;;;;;9.48;5.70;;;;;;;-10.55;81.79;139724.80;1835206;77;22160;-55
2021/12/23 03:44:14;;;;;;;10.18;6.15;;;;;;;-10.61;81.91;139710.00;1834998;77;22160;-55
2021/12/23 03:46:49;;;;;;;11.95;7.45;;;;;;;-10.61;82.21;139710.00;1819440;77;28457;-54
2021/12/23 03:49:24;;;;;;;12.78;6.85;;;;;;;-10.51;82.06;139735.84;1835026;77;22682;-54
2021/12/23 03:51:59;;;;;;;10.23;6.05;;;;;;;-10.52;82.15;139733.39;1835049;77;22132;-55
2021/12/23 03:54:35;;;;;;;14.70;7.72;;;;;;;-10.54;82.08;139727.25;1834783;77;22175;-56
2021/12/23 03:57:35;;;;;;;11.75;7.08;;;;;;;-10.58;82.35;139717.38;1834155;77;22196;-55
2021/12/23 04:00:31;;;;;;;12.70;6.50;;;;;;;-10.59;82.32;139714.94;1834850;77;22205;-55
2021/12/23 04:03:06;;;;;;;11.18;6.25;;;;;;;-10.54;82.57;139727.25;1834986;77;22152;-55
2021/12/23 04:06:01;;;;;;;14.13;7.37;;;;;;;-10.44;82.32;139751.86;1834793;77;22136;-55
2021/12/23 04:08:55;;;;;;;13.43;6.62;;;;;;;-10.40;81.93;139761.72;1834957;77;22256;-55
2021/12/23 04:11:30;;;;;;;12.85;6.87;;;;;;;-10.47;81.67;139743.27;1835057;77;22128;-56
2021/12/23 04:14:06;;;;;;;12.63;7.12;;;;;;;-10.49;81.84;139739.55;1834774;77;22606;-56
2021/12/23 04:16:43;;;;;;;15.90;7.50;;;;;;;-10.60;81.86;139712.50;1834894;77;22156;-55
2021/12/23 04:19:36;;;;;;;14.33;7.40;;;;;;;-10.61;82.16;139710.00;1834932;77;22144;-57
2021/12/23 04:22:13;;;;;;;14.60;6.58;;;;;;;-10.59;82.49;139714.94;1834802;77;22173;-55
2021/12/23 04:24:48;;;;;;;12.05;6.60;;;;;;;-10.52;82.64;139733.39;1835005;77;22133;-56
2021/12/23 04:27:46;;;;;;;16.37;7.22;;;;;;;-10.63;82.05;139705.08;1834943;77;22157;-57
2021/12/23 04:30:23;;;;;;;10.35;5.97;;;;;;;-10.69;82.50;139690.33;1834983;77;22153;-56
2021/12/23 04:33:00;;;;;;;16.25;7.17;;;;;;;-10.74;82.17;139680.47;1834774;77;22128;-56
2021/12/23 04:35:35;;;;;;;11.78;6.08;;;;;;;-10.81;82.12;139663.28;1853571;77;22135;-57
2021/12/23 04:38:28;;;;;;;15.43;6.42;;;;;;;-10.98;82.16;139622.67;1834951;77;22212;-57
2021/12/23 04:41:04;;;;;;;12.63;7.05;;;;;;;-11.07;82.48;139600.52;1853545;77;22148;-57
2021/12/23 04:43:40;;;;;;;16.00;8.35;;;;;;;-11.01;82.98;139614.09;1834971;77;20096;-59
2021/12/23 04:46:34;;;;;;;19.05;8.20;;;;;;;-10.87;83.12;139648.50;1835019;77;22156;-57
2021/12/23 04:49:09;;;;;;;12.65;7.42;;;;;;;-10.82;82.86;139659.58;1835056;77;22124;-59
2021/12/23 04:52:04;;;;;;;14.50;7.12;;;;;;;-10.68;83.18;139692.78;1853496;77;22135;-56
2021/12/23 04:54:39;;;;;;;12.25;7.17;;;;;;;-10.58;83.08;139718.66;1835013;77;22152;-58
2021/12/23 04:57:33;;;;;;;12.95;7.22;;;;;;;-10.49;82.89;139740.77;1834918;77;22137;-56
2021/12/23 05:00:20;;;;;;;14.90;6.92;;;;;;;-10.47;82.48;139743.27;1835071;77;22132;-58
2021/12/23 05:02:55;;;;;;;13.55;7.17;;;;;;;-10.42;82.35;139755.56;1805545;77;22590;-57
2021/12/23 05:05:29;;;;;;;13.35;7.87;;;;;;;-10.41;82.43;139759.23;1835009;77;22125;-57
2021/12/23 05:08:24;;;;;;;12.68;7.08;;;;;;;-10.32;82.58;139781.41;1853480;77;22562;-58
2021/12/23 05:10:59;;;;;;;15.85;7.25;;;;;;;-10.19;82.54;139810.91;1853659;77;22149;-55
2021/12/23 05:13:34;;;;;;;15.50;7.62;;;;;;;-10.10;82.06;139834.30;1834998;77;22136;-55
2021/12/23 05:16:28;;;;;;;12.25;7.30;;;;;;;-10.21;81.28;139805.97;1853494;77;22156;-55
2021/12/23 05:19:05;;;;;;;13.00;7.30;;;;;;;-10.38;81.21;139766.66;1834844;77;22173;-56
2021/12/23 05:21:39;;;;;;;12.75;8.25;;;;;;;-10.42;81.85;139756.78;1819435;77;27975;-57
2021/12/23 05:24:34;;;;;;;15.40;7.83;;;;;;;-10.32;81.63;139780.19;1835050;77;22247;-55
2021/12/23 05:27:10;;;;;;;14.18;8.70;;;;;;;-10.39;81.56;139764.16;1853613;77;22176;-55
2021/12/23 05:30:08;;;;;;;13.83;7.33;;;;;;;-10.43;81.70;139753.08;1835130;77;22220;-55
2021/12/23 05:33:02;;;;;;;17.92;8.03;;;;;;;-10.40;82.08;139761.72;1834963;77;22160;-55
2021/12/23 05:35:55;;;;;;;12.90;7.20;;;;;;;-10.28;82.24;139791.27;1853478;77;22155;-56
2021/12/23 05:38:30;;;;;;;13.40;7.08;;;;;;;-10.21;82.11;139805.97;1835013;77;22157;-57
2021/12/23 05:41:27;;;;;;;13.03;6.08;;;;;;;-10.39;81.62;139764.16;1834434;77;22261;-55
2021/12/23 05:44:04;;;;;;;14.78;7.87;;;;;;;-10.43;81.45;139754.34;1834809;77;22155;-56
2021/12/23 05:46:58;;;;;;;14.58;7.20;;;;;;;-10.58;81.47;139717.38;1834959;77;22555;-56
2021/12/23 05:49:33;;;;;;;17.27;8.55;;;;;;;-10.56;81.92;139722.31;1835038;77;22237;-57
2021/12/23 05:52:17;;;;;;;20.15;9.90;;;;;;;-10.47;82.19;139744.47;1848315;77;22202;-58
2021/12/23 05:55:13;;;;;;;20.35;10.58;;;;;;;-10.38;82.13;139765.38;1853573;77;22148;-57
2021/12/23 05:58:07;;;;;;;26.10;14.90;;;;;;;-10.34;81.85;139775.25;1819278;77;38693;-58
2021/12/23 06:00:41;;;;;;;24.77;12.70;;;;;;;-10.29;81.79;139787.56;1853500;77;22160;-57
2021/12/23 06:03:18;;;;;;;31.23;15.08;;;;;;;-10.29;81.50;139788.78;1834751;77;22622;-56
2021/12/23 06:05:53;;;;;;;36.03;16.55;;;;;;;-10.28;81.57;139791.27;1834945;77;22132;-55
2021/12/23 06:08:29;;;;;;;32.55;15.18;;;;;;;-10.21;81.49;139805.97;1853631;77;20099;-55
2021/12/23 06:11:04;;;;;;;37.03;17.67;;;;;;;-10.10;81.57;139833.03;1853553;77;22131;-56
2021/12/23 06:13:41;;;;;;;34.67;16.17;;;;;;;-9.77;81.62;139911.84;1853552;77;22168;-55
2021/12/23 06:16:36;;;;;;;37.05;18.27;;;;;;;-9.42;81.01;139998.05;1843241;78;22183;-56
2021/12/23 06:19:11;;;;;;;37.70;18.62;;;;;;;-9.05;80.75;140086.80;1835001;77;22125;-57
2021/12/23 06:21:46;;;;;;;39.85;18.75;;;;;;;-8.60;79.89;140195.28;1853581;77;22156;-56
2021/12/23 06:24:21;;;;;;;37.55;16.50;;;;;;;-8.21;78.81;140288.94;1853445;77;22163;-58
2021/12/23 06:26:55;;;;;;;35.63;18.55;;;;;;;-7.80;77.84;140387.63;1826378;77;22187;-59
2021/12/23 06:29:51;;;;;;;33.23;17.60;;;;;;;-7.34;76.77;140498.69;1818173;77;22188;-58
2021/12/23 06:32:27;;;;;;;33.63;17.87;;;;;;;-7.05;75.58;140567.81;1818515;77;22199;-55
2021/12/23 06:35:10;;;;;;;30.85;15.70;;;;;;;-6.69;74.44;140655.53;1837532;77;22602;-56
2021/12/23 06:38:10;;;;;;;35.95;17.30;;;;;;;-6.41;72.78;140723.47;1831116;77;22156;-55
2021/12/23 06:40:45;;;;;;;35.52;17.35;;;;;;;-6.12;71.60;140792.66;1818775;77;22614;-57
2021/12/23 06:43:20;;;;;;;33.63;16.15;;;;;;;-5.86;70.50;140855.64;1853523;77;22184;-57
2021/12/23 06:45:55;;;;;;;34.05;16.75;;;;;;;-5.78;69.81;140874.19;1853506;77;22143;-56
2021/12/23 06:48:36;;;;;;;35.55;15.72;;;;;;;-5.72;68.90;140889.05;1823719;77;23330;-58
2021/12/23 06:51:32;;;;;;;29.18;16.82;;;;;;;-6.14;67.14;140788.94;1808966;77;28054;-56
2021/12/23 06:54:17;;;;;;;22.10;11.45;;;;;;;-6.53;67.34;140693.81;1826120;77;22215;-57
2021/12/23 06:57:17;;;;;;;18.15;10.53;;;;;;;-7.06;66.43;140566.59;1832864;77;22178;-57
2021/12/23 07:00:18;;;;;;;17.00;8.95;;;;;;;-7.76;67.66;140396.25;1820898;77;22195;-56
2021/12/23 07:02:54;;;;;;;15.00;8.15;;;;;;;-8.40;68.67;140242.09;1834861;77;22160;-55
2021/12/23 07:05:29;;;;;;;12.88;8.43;;;;;;;-8.70;70.43;140169.34;1819255;77;28415;-57
2021/12/23 07:08:13;;;;;;;16.70;8.98;;;;;;;-8.75;71.32;140158.25;1853555;77;22160;-56
2021/12/23 07:11:07;;;;;;;16.93;8.93;;;;;;;-8.84;72.16;140137.31;1834649;77;22635;-56
2021/12/23 07:14:01;;;;;;;16.25;8.45;;;;;;;-8.84;72.79;140136.09;1834820;77;22157;-56
2021/12/23 07:16:38;;;;;;;20.77;9.68;;;;;;;-8.88;73.17;140126.22;1820462;77;22212;-57
2021/12/23 07:19:13;;;;;;;14.50;8.90;;;;;;;-8.87;73.56;140128.70;1834691;77;22157;-57
2021/12/23 07:22:07;;;;;;;16.55;9.15;;;;;;;-8.88;73.57;140127.44;1834902;77;22160;-57
2021/12/23 07:24:42;;;;;;;15.75;9.73;;;;;;;-8.97;74.07;140105.28;1819139;77;28011;-58
2021/12/23 07:27:37;;;;;;;17.42;9.48;;;;;;;-8.99;73.67;140101.56;1827468;77;22232;-64
2021/12/23 07:30:38;;;;;;;19.05;9.88;;;;;;;-9.31;74.43;140022.69;1853314;77;22648;-62
2021/12/23 07:33:13;;;;;;;18.92;9.55;;;;;;;-9.21;75.46;140047.34;1834906;77;22575;-63
2021/12/23 07:35:55;;;;;;;18.52;10.60;;;;;;;-9.10;75.29;140074.47;1853384;77;22220;-62
2021/12/23 07:38:50;;;;;;;19.92;11.35;;;;;;;-9.25;75.36;140038.72;1812031;77;22290;-66
2021/12/23 07:41:30;;;;;;;22.07;12.35;;;;;;;-9.17;76.11;140057.22;1816985;77;22239;-64
2021/12/23 07:44:09;;;;;;;20.92;10.58;;;;;;;-9.02;76.14;140094.17;1853405;77;22270;-66
2021/12/23 07:46:44;;;;;;;25.30;11.15;;;;;;;-8.83;76.25;140139.75;1834992;77;22165;-66
2021/12/23 07:49:27;;;;;;;20.37;10.40;;;;;;;-8.71;75.72;140168.13;1853766;77;22210;-65
2021/12/23 07:52:28;;;;;;;21.48;10.98;;;;;;;-8.68;75.33;140175.52;1834032;77;22156;-63
2021/12/23 07:55:04;;;;;;;18.17;10.63;;;;;;;-8.62;75.00;140190.34;1819365;77;38313;-63
2021/12/23 07:57:47;;;;;;;20.52;9.90;;;;;;;-8.49;74.63;140221.16;1824084;77;22226;-61
2021/12/23 08:00:47;;;;;;;14.55;8.50;;;;;;;-8.31;74.65;140264.27;1834018;77;22156;-62
2021/12/23 08:03:42;;;;;;;13.85;8.13;;;;;;;-8.25;74.12;140279.05;1817652;77;22167;-63
2021/12/23 08:06:17;;;;;;;12.90;7.47;;;;;;;-8.34;73.23;140258.09;1834869;77;22164;-64
2021/12/23 08:08:58;;;;;;;15.40;7.53;;;;;;;-8.39;73.33;140244.59;1834115;77;22592;-62
2021/12/23 08:11:52;;;;;;;13.35;7.28;;;;;;;-8.38;73.35;140247.00;1830320;77;22204;-65
2021/12/23 08:14:34;;;;;;;16.97;7.80;;;;;;;-8.32;73.50;140261.78;1834015;77;22185;-65
2021/12/23 08:17:08;;;;;;;12.13;6.72;;;;;;;-8.31;72.98;140264.27;1835045;77;22149;-61
2021/12/23 08:19:43;;;;;;;16.10;7.80;;;;;;;-8.22;73.09;140286.44;1834921;77;22208;-62
2021/12/23 08:22:19;;;;;;;19.17;9.45;;;;;;;-8.12;72.99;140311.11;1834621;77;22665;-64
2021/12/23 08:25:00;;;;;;;13.88;8.93;;;;;;;-7.99;72.42;140341.94;1834057;77;22192;-63
2021/12/23 08:27:35;;;;;;;21.93;10.58;;;;;;;-7.91;72.13;140361.72;1834886;77;22165;-62
2021/12/23 08:30:19;;;;;;;27.13;12.37;;;;;;;-7.65;72.08;140424.64;1830483;77;22243;-64
2021/12/23 08:32:54;;;;;;;26.25;13.40;;;;;;;-7.32;71.97;140503.64;1834861;77;22594;-65
2021/12/23 08:35:29;;;;;;;25.27;13.53;;;;;;;-6.99;71.13;140583.89;1834813;77;22141;-64
2021/12/23 08:38:10;;;;;;;25.25;11.60;;;;;;;-6.52;70.50;140696.27;1843053;77;22208;-63
2021/12/23 08:41:04;;;;;;;19.73;11.18;;;;;;;-6.13;69.49;140790.16;1853381;77;22574;-64
2021/12/23 08:43:58;;;;;;;26.12;11.88;;;;;;;-5.85;68.45;140856.88;1834838;77;22160;-58
2021/12/23 08:46:51;;;;;;;18.05;9.25;;;;;;;-5.64;67.72;140908.81;1834884;77;22136;-58
2021/12/23 08:49:33;;;;;;;15.32;8.05;;;;;;;-5.07;67.83;141047.31;1799951;79;22721;-57
2021/12/23 08:52:08;;;;;;;15.25;8.48;;;;;;;-4.49;66.45;141187.16;1819300;77;28426;-59
2021/12/23 08:54:43;;;;;;;12.20;7.50;;;;;;;-4.28;64.72;141236.67;1834896;77;22157;-59
2021/12/23 08:57:39;;;;;;;11.35;7.67;;;;;;;-4.18;63.53;141262.66;1835019;77;22148;-57
2021/12/23 09:00:36;;;;;;;12.33;8.10;;;;;;;-4.05;63.29;141292.39;1834809;77;22582;-57
2021/12/23 09:03:11;;;;;;;12.90;7.22;;;;;;;-3.89;61.96;141330.77;1834881;77;22132;-59
2021/12/23 09:06:11;;;;;;;13.50;7.53;;;;;;;-4.07;61.10;141287.42;1833933;77;22158;-58
2021/12/23 09:09:07;;;;;;;17.80;9.85;;;;;;;-4.48;60.58;141189.62;1853432;77;22187;-57
2021/12/23 09:11:43;;;;;;;18.70;9.40;;;;;;;-4.60;61.27;141161.19;1834806;77;22164;-59
2021/12/23 09:14:39;;;;;;;17.95;10.50;;;;;;;-4.75;60.83;141124.05;1819082;77;28016;-58
2021/12/23 09:17:17;;;;;;;24.25;12.78;;;;;;;-4.92;60.95;141081.97;1853436;77;22159;-58
2021/12/23 09:19:51;;;;;;;29.35;14.10;;;;;;;-5.06;61.14;141049.81;1853344;77;22136;-58
2021/12/23 09:22:32;;;;;;;33.65;15.85;;;;;;;-5.18;61.36;141020.12;1834215;77;22200;-59
2021/12/23 09:25:24;;;;;;;33.18;17.55;;;;;;;-5.31;61.42;140989.19;1827048;77;22168;-59
2021/12/23 09:28:30;;;;;;;21.77;12.43;;;;;;;-5.45;61.99;140955.78;1833964;77;22709;-58
2021/12/23 09:34:19;;;;;;;36.60;15.43;;;;;;;-5.79;62.08;140872.95;1834759;77;22773;-58
2021/12/23 09:37:15;;;;;;;26.50;12.50;;;;;;;-6.03;62.49;140814.92;1834321;77;22229;-60
2021/12/23 09:40:10;;;;;;;23.52;12.33;;;;;;;-6.10;62.72;140797.63;1826385;77;22210;-59
2021/12/23 09:42:53;;;;;;;24.12;11.73;;;;;;;-6.13;62.87;140790.16;1851890;77;22211;-58
2021/12/23 09:45:30;;;;;;;23.85;12.30;;;;;;;-6.14;63.08;140787.72;1843529;78;20207;-59
2021/12/23 09:48:28;;;;;;;27.98;14.63;;;;;;;-6.24;63.14;140764.22;1819238;77;28458;-58
2021/12/23 09:51:13;;;;;;;28.52;16.45;;;;;;;-6.20;63.37;140774.13;1818605;77;22192;-58
2021/12/23 09:54:09;;;;;;;24.32;13.93;;;;;;;-6.25;63.42;140760.55;1826976;77;22163;-60
2021/12/23 09:56:50;;;;;;;28.95;17.17;;;;;;;-6.31;63.71;140745.69;1834126;77;22156;-58
2021/12/23 09:59:50;;;;;;;28.25;13.75;;;;;;;-6.31;63.93;140745.69;1833991;77;22587;-69
2021/12/23 10:02:25;;;;;;;23.92;12.35;;;;;;;-6.25;64.15;140760.55;1853481;77;22562;-69
2021/12/23 10:05:03;;;;;;;23.95;11.45;;;;;;;-6.22;63.98;140767.94;1834639;77;22578;-69
2021/12/23 10:07:39;;;;;;;26.07;11.22;;;;;;;-6.21;63.82;140770.41;1853564;77;22198;-65
2021/12/23 10:37:45;;;;;;;20.43;12.18;;;;;;;-6.06;63.93;140807.47;1882682;74;27976;-61
2021/12/23 10:40:20;;;;;;;18.32;10.32;;;;;;;-6.01;64.00;140819.83;1821307;77;22192;-63
2021/12/23 10:43:03;;;;;;;18.23;10.75;;;;;;;-5.95;63.87;140833.47;1825383;77;22222;-61
2021/12/23 10:45:56;;;;;;;21.62;12.03;;;;;;;-6.00;63.72;140822.33;1817523;77;28115;-63
2021/12/23 10:48:35;;;;;;;21.55;10.93;;;;;;;-5.89;63.83;140849.45;1797992;77;22684;-60
2021/12/23 11:00:51;;;;;;;22.40;12.47;;;;;;;-5.49;63.03;140945.91;1818570;77;22216;-61
2021/12/23 11:03:34;;;;;;;24.12;12.65;;;;;;;-5.35;63.13;140979.28;1817008;77;22645;-61
2021/12/23 11:06:19;;;;;;;25.45;12.58;;;;;;;-5.27;62.84;140997.84;1843773;77;22144;-61
2021/12/23 11:09:41;;;;;;;26.05;14.05;;;;;;;-5.26;62.74;141000.34;1853420;77;22631;-59
2021/12/23 11:44:52;;;;;;;24.27;14.63;;;;;;;-5.39;62.04;140969.42;1853533;77;22148;-59
2021/12/23 11:47:28;;;;;;;29.07;15.85;;;;;;;-5.41;62.09;140964.47;1834921;77;22140;-60
2021/12/23 11:50:06;;;;;;;26.10;14.25;;;;;;;-5.40;61.99;140966.91;1834807;77;22129;-60
2021/12/23 11:53:02;;;;;;;35.40;21.12;;;;;;;-5.58;61.98;140923.64;1819312;77;28002;-60
2021/12/23 11:55:41;;;;;;;22.20;12.98;;;;;;;-5.55;62.22;140931.05;1834753;77;22619;-59
2021/12/23 11:58:16;;;;;;;25.50;14.63;;;;;;;-5.53;62.10;140936.00;1853479;77;22161;-60
2021/12/23 12:01:19;;;;;;;26.90;14.35;;;;;;;-5.61;61.82;140915.00;1834811;77;22152;-60
2021/12/23 12:04:04;;;;;;;24.77;15.05;;;;;;;-5.67;61.83;140901.41;1834954;77;22552;-59
2021/12/23 12:06:59;;;;;;;22.93;13.45;;;;;;;-5.69;61.51;140896.45;1853473;77;22155;-59
2021/12/23 12:09:34;;;;;;;28.20;16.85;;;;;;;-5.86;61.85;140854.41;1827775;77;28059;-60
2021/12/23 12:12:30;;;;;;;24.80;14.60;;;;;;;-5.88;62.38;140850.69;1853469;77;22163;-59
2021/12/23 12:15:11;;;;;;;27.25;15.05;;;;;;;-5.81;62.31;140868.00;1853487;77;22191;-59
2021/12/23 12:17:48;;;;;;;31.07;16.85;;;;;;;-5.78;62.20;140874.19;1848139;77;22164;-59
2021/12/23 12:23:31;;;;;;;27.65;14.47;;;;;;;-5.69;62.27;140897.69;1834715;77;22208;-61
2021/12/23 12:26:29;;;;;;;28.47;16.15;;;;;;;-5.82;62.58;140864.31;1834727;77;22176;-59
2021/12/23 12:29:37;;;;;;;25.45;13.62;;;;;;;-5.74;62.66;140884.09;1834105;77;22270;-59
2021/12/23 12:32:37;;;;;;;27.42;14.33;;;;;;;-5.70;62.77;140893.95;1834692;77;22219;-59
2021/12/23 12:35:31;;;;;;;29.42;17.42;;;;;;;-5.67;62.53;140901.41;1853589;77;22551;-61
2021/12/23 12:38:27;;;;;;;29.63;15.00;;;;;;;-5.69;62.56;140896.45;1834900;77;22243;-60
2021/12/23 12:41:26;;;;;;;26.12;15.20;;;;;;;-5.74;62.47;140884.09;1853681;77;22285;-60
2021/12/23 12:44:21;;;;;;;29.18;15.63;;;;;;;-5.87;62.75;140851.97;1834913;77;22124;-60
2021/12/23 12:47:14;;;;;;;31.62;16.32;;;;;;;-5.92;63.24;140842.06;1833518;77;22156;-60
2021/12/23 12:49:52;;;;;;;36.73;20.52;;;;;;;-5.85;63.28;140856.88;1834870;77;22124;-60
2021/12/23 12:52:50;;;;;;;28.95;15.35;;;;;;;-5.87;63.45;140851.97;1853367;77;22167;-60
2021/12/23 12:55:48;;;;;;;25.77;13.98;;;;;;;-5.84;63.47;140860.59;1843309;77;22131;-60
2021/12/23 12:58:54;;;;;;;29.50;15.35;;;;;;;-5.87;63.59;140851.97;1834018;77;22159;-61
2021/12/23 13:01:43;;;;;;;30.23;16.25;;;;;;;-5.82;63.53;140864.31;1834097;77;22160;-60
2021/12/23 13:04:40;;;;;;;27.73;16.23;;;;;;;-5.95;63.36;140833.47;1834916;77;22547;-61
2021/12/23 13:07:37;;;;;;;30.80;17.07;;;;;;;-5.98;63.83;140826.02;1853476;77;22183;-59
2021/12/23 13:10:36;;;;;;;34.00;18.02;;;;;;;-5.90;63.81;140847.00;1834921;77;22164;-59
2021/12/23 13:13:35;;;;;;;30.05;17.02;;;;;;;-5.85;63.71;140856.88;1834742;77;22179;-60
2021/12/23 13:16:25;;;;;;;36.63;18.40;;;;;;;-5.95;63.71;140834.69;1834792;77;22172;-67
2021/12/23 13:19:24;;;;;;;37.90;18.92;;;;;;;-6.03;63.88;140814.92;1834732;77;22148;-71
2021/12/23 13:22:02;;;;;;;31.85;16.93;;;;;;;-6.18;64.08;140779.08;1843350;77;22160;-71
2021/12/23 13:24:37;;;;;;;33.75;17.70;;;;;;;-6.30;64.46;140749.41;1819673;77;22246;-71
2021/12/23 13:27:12;;;;;;;32.48;18.23;;;;;;;-6.35;64.65;140737.06;1834963;77;22144;-71
2021/12/23 13:30:04;;;;;;;34.43;18.15;;;;;;;-6.39;64.76;140728.38;1828165;77;22616;-72
2021/12/23 13:32:40;;;;;;;37.48;18.73;;;;;;;-6.41;64.95;140723.47;1853513;77;22196;-73
2021/12/23 13:35:22;;;;;;;45.85;20.80;;;;;;;-6.43;65.07;140718.53;1827733;77;22212;-72
2021/12/23 13:38:04;;;;;;;39.42;20.62;;;;;;;-6.52;65.13;140695.05;1824230;77;22308;-72
2021/12/23 13:41:29;;;;;;;37.40;20.37;;;;;;;-6.65;65.32;140664.16;1834622;77;22602;-73
2021/12/23 13:44:26;;;;;;;38.48;19.48;;;;;;;-6.86;65.76;140613.53;1834520;77;22238;-71
2021/12/23 13:47:19;;;;;;;42.98;20.17;;;;;;;-7.03;66.07;140572.77;1833891;77;22196;-74
2021/12/23 13:50:01;;;;;;;39.80;19.45;;;;;;;-7.16;66.65;140540.67;1834237;77;22602;-75
2021/12/23 13:52:56;;;;;;;40.73;22.02;;;;;;;-7.33;66.85;140499.91;1834661;77;22165;-74
2021/12/23 13:55:56;;;;;;;39.73;20.23;;;;;;;-7.56;67.37;140445.59;1832828;77;22251;-74
2021/12/23 13:58:49;;;;;;;40.78;20.72;;;;;;;-7.68;67.96;140417.25;1834679;77;22168;-76